Time;durP1;ratioP1;P1;durP2;ratioP2;P2;SDS_P1;SDS_P2;PMS_P1;PMS_P2;Temp;Humidity;BMP_temperature;BMP_pressure;BME280_temperature;BME280_humidity;BME280_pressure;Samples;Min_cycle;Max_cycle;Signal;HPM_P1;HPM_P2
2023/02/16 00:05:58;;;;;;;84.20;38.60;;;;;;;0.73;83.11;99419.94;437464;1248;110228;-40
2023/02/16 00:16:05;;;;;;;88.10;39.50;;;;;;;0.52;83.37;99407.52;438567;1250;98381;-40
2023/02/16 00:26:13;;;;;;;80.10;36.70;;;;;;;0.38;83.42;99411.26;437598;1250;111380;-40
2023/02/16 00:36:21;;;;;;;71.30;35.00;;;;;;;0.31;83.41;99401.76;437572;1250;106547;-42
2023/02/16 00:46:28;;;;;;;60.40;31.50;;;;;;;0.29;83.51;99407.79;437371;1247;99212;-40
2023/02/16 00:56:36;;;;;;;66.50;31.70;;;;;;;0.29;83.57;99404.17;437529;1251;112979;-40
2023/02/16 01:17:09;;;;;;;81.10;36.00;;;;;;;0.18;83.74;99384.20;437645;1248;98810;-40
2023/02/16 01:27:16;;;;;;;61.40;30.90;;;;;;;0.08;83.75;99376.88;437489;1250;110265;-40
2023/02/16 01:37:24;;;;;;;54.40;26.90;;;;;;;0.18;83.87;99370.65;437497;1248;108527;-40
2023/02/16 01:47:34;;;;;;;65.20;30.20;;;;;;;0.31;83.91;99363.35;437547;1247;99202;-40
2023/02/16 01:57:43;;;;;;;72.10;32.70;;;;;;;0.32;84.08;99362.04;437432;1250;107595;-40
2023/02/16 02:07:52;;;;;;;65.00;32.40;;;;;;;0.25;84.17;99353.51;437420;1248;97976;-41
2023/02/16 02:17:59;;;;;;;53.50;27.70;;;;;;;0.19;83.96;99353.09;438658;1249;112966;-40
2023/02/16 02:28:04;;;;;;;46.30;22.30;;;;;;;0.19;84.04;99344.61;437970;1248;108571;-41
2023/02/16 02:38:09;;;;;;;62.80;28.10;;;;;;;0.22;84.21;99339.28;438222;1250;98330;-43
2023/02/16 02:48:17;;;;;;;69.10;32.80;;;;;;;0.12;84.33;99336.48;438154;1259;108294;-42
2023/02/16 03:08:50;;;;;;;59.20;28.80;;;;;;;-0.12;84.20;99346.64;437892;1248;112073;-41
2023/02/16 03:29:26;;;;;;;59.70;28.80;;;;;;;-0.06;84.38;99339.79;437560;1250;533660;-40
2023/02/16 03:39:30;;;;;;;;;;;;;;;-0.11;84.42;99330.46;439087;1251;108356;-39
2023/02/16 03:49:37;;;;;;;71.20;32.10;;;;;;;-0.27;84.53;99331.80;437967;1250;99285;-40
2023/02/16 03:59:43;;;;;;;70.50;32.20;;;;;;;-0.48;84.41;99319.38;438124;1251;109785;-40
2023/02/16 04:09:50;;;;;;;66.40;32.50;;;;;;;-0.55;84.52;99315.55;438063;1251;109626;-41
2023/02/16 04:19:57;;;;;;;58.10;28.90;;;;;;;-0.55;84.60;99315.52;438110;1247;98244;-40
2023/02/16 04:30:04;;;;;;;56.30;28.80;;;;;;;-0.58;84.50;99301.29;437985;1250;111633;-40
2023/02/16 04:40:14;;;;;;;63.10;29.70;;;;;;;-0.60;84.80;99286.61;438035;1247;107620;-39
2023/02/16 04:50:20;;;;;;;75.80;34.50;;;;;;;-0.59;85.00;99290.84;438109;1251;99388;-41
2023/02/16 05:00:27;;;;;;;79.00;35.90;;;;;;;-0.66;85.08;99294.52;438214;1251;110749;-40
2023/02/16 05:10:33;;;;;;;67.50;32.00;;;;;;;-0.79;84.86;99292.78;437999;1248;108284;-40
2023/02/16 05:31:05;;;;;;;73.80;33.70;;;;;;;-0.71;85.06;99282.77;439319;1248;112982;-41
2023/02/16 05:41:22;;;;;;;100.40;43.00;;;;;;;-0.71;85.24;99299.71;438113;1250;108256;-38
2023/02/16 05:51:29;;;;;;;95.20;42.50;;;;;;;-0.81;85.30;99307.02;438947;1250;97962;-40
2023/02/16 06:01:39;;;;;;;97.80;40.50;;;;;;;-0.87;85.47;99319.84;439255;1251;111384;-39
2023/02/16 06:11:47;;;;;;;81.80;33.40;;;;;;;-0.84;85.36;99312.54;438123;1248;106916;-40
2023/02/16 06:21:54;;;;;;;64.70;29.70;;;;;;;-0.69;85.37;99318.70;441994;1260;99689;-40
2023/02/16 06:32:01;;;;;;;64.90;31.90;;;;;;;-0.53;85.42;99322.27;440221;1250;111688;-40
2023/02/16 06:42:09;;;;;;;88.90;38.10;;;;;;;-0.32;85.57;99324.29;441016;1250;108443;-39
2023/02/16 06:52:16;;;;;;;91.00;40.90;;;;;;;-0.25;85.51;99322.39;440478;1250;99002;-39
2023/02/16 07:02:23;;;;;;;69.00;32.60;;;;;;;0.07;85.96;99322.80;438755;1248;111769;-47
2023/02/16 07:12:31;;;;;;;60.70;29.20;;;;;;;0.77;85.82;99312.78;441474;1249;106655;-41
2023/02/16 07:42:50;;;;;;;66.50;31.30;;;;;;;3.04;85.73;99297.67;440302;1245;118458;-39
2023/02/16 07:52:57;;;;;;;47.10;27.20;;;;;;;4.34;85.15;99293.42;441524;1250;111908;-40
2023/02/16 08:03:04;;;;;;;60.00;32.40;;;;;;;5.38;84.47;99293.55;438337;1247;106771;-39
2023/02/16 08:13:12;;;;;;;66.90;33.20;;;;;;;5.78;83.59;99302.83;439701;1250;99333;-40
2023/02/16 08:33:24;;;;;;;64.40;32.50;;;;;;;6.13;82.34;99310.88;438259;1250;108132;-41
2023/02/16 08:43:31;;;;;;;60.10;32.60;;;;;;;6.12;81.59;99311.06;440753;1250;97988;-40
2023/02/16 08:53:40;;;;;;;60.60;31.60;;;;;;;5.88;80.60;99311.64;438077;1247;98278;-39
2023/02/16 09:03:48;;;;;;;56.60;30.60;;;;;;;5.66;80.20;99319.29;439283;1250;105893;-41
2023/02/16 09:13:55;;;;;;;67.80;31.40;;;;;;;5.66;80.14;99320.98;438071;1250;97975;-40
2023/02/16 09:24:04;;;;;;;59.40;29.90;;;;;;;5.86;80.03;99313.58;439681;1250;111555;-40
2023/02/16 09:34:17;;;;;;;65.30;32.50;;;;;;;6.03;79.88;99311.24;440219;1250;108710;-40
2023/02/16 09:44:27;;;;;;;55.90;27.80;;;;;;;6.09;79.31;99302.59;438107;1250;98363;-40
2023/02/16 09:54:36;;;;;;;57.50;29.30;;;;;;;6.20;79.10;99304.09;438240;1248;112321;-39
2023/02/16 10:04:50;;;;;;;56.80;27.40;;;;;;;6.34;78.61;99294.21;438176;1250;109272;-40
2023/02/16 10:15:03;;;;;;;57.30;29.30;;;;;;;6.59;78.29;99280.23;438153;1248;99122;-39
2023/02/16 10:25:12;;;;;;;47.80;25.60;;;;;;;6.76;77.86;99266.54;438093;1246;113043;-39
2023/02/16 10:35:21;;;;;;;;;;;;;;;7.07;77.61;99260.04;438160;1250;107711;-40
2023/02/16 10:55:34;;;;;;;39.10;21.90;;;;;;;7.49;76.81;99250.45;438106;1248;111107;-40
2023/02/16 11:05:42;;;;;;;39.80;22.40;;;;;;;7.68;76.13;99239.29;438209;1249;107532;-40
2023/02/16 11:25:59;;;;;;;38.70;20.40;;;;;;;7.95;74.54;99232.75;436831;1247;112477;-41
2023/02/16 11:36:06;;;;;;;46.00;22.50;;;;;;;8.02;73.69;99222.87;436848;1247;107723;-41
2023/02/16 11:46:11;;;;;;;34.60;20.90;;;;;;;8.02;73.07;99222.51;436770;1248;98817;-40
2023/02/16 12:26:46;;;;;;;41.70;21.70;;;;;;;8.67;69.92;99192.43;438300;1248;110659;-39
2023/02/16 12:36:53;;;;;;;39.10;21.50;;;;;;;8.70;70.15;99185.45;438060;1250;108114;-40
2023/02/16 12:47:05;;;;;;;38.80;21.40;;;;;;;8.84;70.26;99180.13;438294;1250;99201;-40
2023/02/16 12:57:10;;;;;;;39.50;21.00;;;;;;;8.86;69.18;99167.42;440277;1249;111483;-41
2023/02/16 13:17:30;;;;;;;39.80;21.80;;;;;;;8.70;68.48;99149.59;439950;1246;97900;-39
2023/02/16 13:27:37;;;;;;;44.30;24.40;;;;;;;8.64;68.22;99141.61;438924;1250;110918;-40
2023/02/16 13:37:49;;;;;;;49.10;26.60;;;;;;;8.64;68.93;99138.29;440110;1248;107132;-40
2023/02/16 13:47:58;;;;;;;46.40;22.40;;;;;;;8.56;69.39;99132.21;438154;1250;97995;-41
2023/02/16 13:58:05;;;;;;;33.70;18.50;;;;;;;8.34;69.54;99133.46;438122;1250;108594;-40
2023/02/16 14:08:10;;;;;;;38.20;21.00;;;;;;;8.12;69.41;99128.34;438133;1248;98104;-41
2023/02/16 14:18:28;;;;;;;44.00;24.00;;;;;;;7.96;69.81;99127.38;438195;1247;110293;-40
2023/02/16 14:29:14;;;;;;;48.20;24.70;;;;;;;7.87;69.97;99126.89;438187;1250;108740;-41
2023/02/16 14:39:23;;;;;;;45.00;24.60;;;;;;;7.87;70.25;99133.69;439058;1248;98820;-40
2023/02/16 14:49:40;;;;;;;37.00;20.70;;;;;;;7.84;70.16;99133.29;438232;1248;111281;-40
2023/02/16 14:59:50;;;;;;;59.70;30.80;;;;;;;7.78;70.08;99136.30;438064;1248;108332;-40
2023/02/16 15:20:02;;;;;;;97.00;52.80;;;;;;;7.17;69.76;99133.65;438338;1255;99241;-40
2023/02/16 15:30:26;;;;;;;75.10;41.50;;;;;;;6.90;69.91;99130.30;438445;1250;506255;-40
2023/02/16 15:40:34;;;;;;;54.20;27.40;;;;;;;6.58;70.16;99118.42;438283;1250;99088;-43
2023/02/16 15:50:42;;;;;;;56.20;29.60;;;;;;;6.27;70.37;99114.80;438236;1251;111308;-40
2023/02/16 16:00:50;;;;;;;49.60;26.50;;;;;;;6.04;70.86;99104.71;438136;1248;107675;-39
2023/02/16 16:10:58;;;;;;;56.60;29.10;;;;;;;5.82;71.25;99098.50;438084;1248;98814;-39
2023/02/16 16:21:12;;;;;;;110.90;54.50;;;;;;;5.51;71.53;99094.98;438255;1261;107863;-39
2023/02/16 16:31:31;;;;;;;98.70;44.80;;;;;;;5.18;71.79;99100.67;438205;1250;98817;-42
2023/02/16 16:41:39;;;;;;;;;;;;;;;4.89;72.25;99107.31;438152;1250;112293;-39
2023/02/16 16:51:53;;;;;;;97.20;44.60;;;;;;;4.63;72.66;99116.34;438174;1248;108858;-41
2023/02/16 17:02:00;;;;;;;74.10;38.20;;;;;;;4.49;72.86;99109.61;438242;1250;98846;-39
2023/02/16 17:12:08;;;;;;;64.00;31.00;;;;;;;4.39;73.16;99103.25;438249;1247;111083;-38
2023/02/16 17:22:17;;;;;;;72.30;32.70;;;;;;;4.28;73.39;99102.77;438135;1250;107591;-39
2023/02/16 17:32:24;;;;;;;71.70;34.70;;;;;;;4.07;73.88;99105.44;438353;1250;99201;-39
2023/02/16 17:42:32;;;;;;;65.00;32.80;;;;;;;3.83;74.08;99102.26;438233;1250;109508;-39
2023/02/16 17:52:40;;;;;;;64.00;30.30;;;;;;;3.64;74.33;99103.82;438232;1248;99223;-40
2023/02/16 18:02:47;;;;;;;63.90;33.30;;;;;;;3.54;74.57;99109.05;438250;1251;111117;-40
2023/02/16 18:12:55;;;;;;;86.30;36.40;;;;;;;3.47;74.88;99118.13;438048;1250;107770;-39
2023/02/16 18:23:02;;;;;;;78.80;39.30;;;;;;;3.34;75.26;99121.51;439228;1250;97941;-40
2023/02/16 18:33:09;;;;;;;86.30;40.40;;;;;;;3.09;75.49;99133.90;439262;1250;108528;-40
2023/02/16 18:43:17;;;;;;;84.90;39.50;;;;;;;2.88;75.61;99139.84;440745;1250;99198;-40
2023/02/16 18:53:23;;;;;;;62.60;34.30;;;;;;;2.75;75.92;99136.39;439819;1248;111010;-39
2023/02/16 19:03:31;;;;;;;76.90;37.20;;;;;;;2.72;76.31;99134.87;438155;1248;107956;-40
2023/02/16 19:13:39;;;;;;;72.80;37.10;;;;;;;2.73;76.38;99132.84;438180;1250;99204;-39
2023/02/16 19:23:46;;;;;;;96.50;43.20;;;;;;;2.65;76.73;99127.41;435808;1252;108166;-39
2023/02/16 19:33:54;;;;;;;124.10;59.00;;;;;;;2.55;77.12;99136.02;437841;1252;98812;-41
2023/02/16 19:44:01;;;;;;;111.00;45.80;;;;;;;2.37;77.10;99123.14;437623;1252;111222;-39
2023/02/16 19:54:09;;;;;;;98.50;46.60;;;;;;;2.28;77.27;99115.46;437136;1254;110028;-39
2023/02/16 20:04:16;;;;;;;79.20;40.60;;;;;;;2.30;77.47;99118.39;435697;1250;99227;-39
2023/02/16 20:14:24;;;;;;;96.40;44.00;;;;;;;2.32;77.62;99127.51;436701;1248;111809;-39
2023/02/16 20:24:31;;;;;;;118.30;53.10;;;;;;;2.24;77.82;99130.83;438861;1250;108165;-40
2023/02/16 20:34:39;;;;;;;118.90;52.80;;;;;;;2.12;77.94;99130.23;439400;1250;99122;-39
2023/02/16 20:44:46;;;;;;;125.00;55.80;;;;;;;1.94;78.17;99129.23;438563;1249;112301;-40
2023/02/16 20:54:53;;;;;;;82.20;41.60;;;;;;;1.77;78.08;99124.39;441568;1251;107350;-40
2023/02/16 21:05:00;;;;;;;82.80;40.20;;;;;;;1.78;78.34;99121.05;442200;1248;98266;-40
2023/02/16 21:15:08;;;;;;;81.40;39.40;;;;;;;1.79;78.59;99115.59;442015;1251;108814;-40
2023/02/16 21:25:16;;;;;;;111.50;48.40;;;;;;;1.80;78.77;99105.90;440876;1251;99224;-40
2023/02/16 21:35:23;;;;;;;115.10;51.20;;;;;;;1.70;79.07;99104.95;438143;1250;112956;-40
2023/02/16 21:45:31;;;;;;;124.90;53.30;;;;;;;1.58;79.10;99106.72;438205;1260;110400;-40
2023/02/16 22:06:04;;;;;;;120.50;52.80;;;;;;;1.59;79.45;99108.90;438086;1260;109422;-38
2023/02/16 22:16:11;;;;;;;111.20;47.90;;;;;;;1.65;79.46;99112.05;438206;1259;99205;-40
2023/02/16 22:36:27;;;;;;;113.00;53.60;;;;;;;1.64;79.74;99103.99;438154;1250;107498;-41
2023/02/16 22:46:35;;;;;;;118.60;53.20;;;;;;;1.50;79.86;99108.05;438295;1250;99307;-40
2023/02/16 22:56:42;;;;;;;86.40;43.70;;;;;;;1.45;79.81;99108.44;438144;1248;111900;-40
2023/02/16 23:06:50;;;;;;;74.60;39.70;;;;;;;1.45;79.73;99105.80;438093;1251;109896;-39
2023/02/16 23:16:57;;;;;;;82.80;40.00;;;;;;;1.56;80.05;99099.13;438157;1250;99211;-40
2023/02/16 23:27:03;;;;;;;108.20;47.70;;;;;;;1.64;80.15;99094.45;438164;1251;107435;-39
2023/02/16 23:37:10;;;;;;;102.50;47.30;;;;;;;1.54;80.19;99088.90;438060;1250;97990;-40
2023/02/16 23:47:18;;;;;;;115.50;48.90;;;;;;;1.48;80.46;99091.80;438162;1259;111388;-40
2023/02/16 23:57:26;;;;;;;80.70;37.50;;;;;;;1.55;80.40;99083.46;437929;1247;109131;-40
